KMOP/MOP METAR and TAF weather

Enter ICAO airport designator
Station Type Date Time Source
KMOP METAR 2021/05/14 13:35 UTC NOAA

KMOP 141335Z AUTO 26004KT 10SM CLR 16/M01 A3030 RMK AO2 T01641006


Station Type Date Time Source
KMOP Decoded METAR 2021/05/14 13:35 UTC NOAA

Mount Pleasant, Mount Pleasant Municipal Airport, MI, United States (KMOP) 43-37N 84-44W
May 14, 2021 - 09:35 AM EDT / 2021.05.14 1335 UTC
Wind: from the W (260 degrees) at 5 MPH (4 KT):0
Visibility: 10 mile(s):0
Sky conditions: clear
Temperature: 61.5 F (16.4 C)
Dew Point: 30.9 F (-0.6 C)
Relative Humidity: 31%
Pressure (altimeter): 30.3 in. Hg (1026 hPa)
ob: KMOP 141335Z AUTO 26004KT 10SM CLR 16/M01 A3030 RMK AO2 T01641006
cycle: 13

Station Type Date Time Source
KMOP TAF UTC NOAA

Error!

Example: see airport list